Terminal Aerodrome Forecast
Issued by NWS Northern Indiana

Home | Current Version | Previous Version | Graphics & Text | Print | Product List | Glossary On
Versions: 1 2 3 4 5 6 7 8 9 10 11 12 13 14 15 16
000
FTUS43 KIWX 281700
TAFFWA
TAF
KFWA 281720Z 2818/2918 15010KT P6SM FEW120 BKN250
     FM290500 16014G22KT P6SM FEW070 OVC150 WS020/20045KT PROB30
      2907/2910 -FZRA OVC050
     FM291000 17013G20KT 6SM -SHRA BR OVC035 WS020/21050KT
      TEMPO 2911/2914 4SM SHRA OVC025
     FM291400 20014KT 4SM -SHRA OVC008=

USA.gov is the U.S. government's official web portal to all federal, state and local government web resources and services.